Aérodrome :
LOGIN :

S'inscrire | Disclaimer

   EN    FR    IT 

 










Légende :    VFR   VFR Marginal   IFR   IFR Intensif   IFR Très Intensif
Visi : 
Plafond : 
>= 8 km
>= 3000ft
5 à 8 km
1000 à 3000 ft
1500m à 5 km
500 à 1000 ft
800 à 1500m
200 à 500 ft
< 800m
< 200 ft
Symboles :   Orages  Brouillard  Fortes neiges  Fortes précipitations  Vent > 20 kt
SIGMETs :   Divers  Orages  Givrage  Turbulence  Onde Orograph.  Cendres Volcan.






- Altitude de l'aérodrome : 375 ft
- Code IATA : MST


EHBK - Maastricht Aachen

DERNIER METAR :
  • 281225Z AUTO 06012KT 010V100 9999 NCD 20/04 Q1032 NOSIG

METARs EXPIRÉS :
  • 281155Z AUTO 06011KT 020V110 9999 NCD 20/04 Q1032 NOSIG
  • 281125Z AUTO 04010KT 340V100 9999 NCD 20/05 Q1032 NOSIG
  • 281055Z AUTO 05011KT 020V090 9999 NCD 19/04 Q1032 NOSIG
  • 281025Z AUTO 02011KT 340V050 9999 NCD 19/04 Q1033 NOSIG
  • 280955Z AUTO 05012KT 010V090 9999 NCD 18/03 Q1033 NOSIG

TAF TAF EHBK
Valide du 28 à 12h jusqu'au 29 à 18h UTC


281110Z 2812/2918 04010KT CAVOK



MET'MAP, la Météo Aéronautique d'un coup d'oeil ! - Copyright ORBIFLY Décembre 2007 - Disclaimer

ORBIFLY MET'MAP TEAM :

Programmation & Développement : Alexandra Zaïnal
Sur une idée originale de : Baudouin d'Aumeries
Assistance à la programmation : Marc-Olivier Méhu
Soutien technique & logistique : Manuel Goepfert

Contact : metmap@orbifly.com




SOURCES & CREDITS :

   NOAA